Time;durP1;ratioP1;P1;durP2;ratioP2;P2;SDS_P1;SDS_P2;PMS_P1;PMS_P2;Temp;Humidity;BMP_temperature;BMP_pressure;BME280_temperature;BME280_humidity;BME280_pressure;Samples;Min_cycle;Max_cycle;Signal;HPM_P1;HPM_P2
2023/11/09 00:02:09;;;;;;;2.20;1.20;;;;;;;-144.05;83.01;56974.16;5014569;28;20057;-83
2023/11/09 00:04:36;;;;;;;1.95;1.23;;;;;;;-144.05;83.41;56982.66;5013882;28;20029;-83
2023/11/09 00:07:03;;;;;;;3.15;1.35;;;;;;;-144.05;83.35;56974.16;5014117;28;20170;-80
2023/11/09 00:09:29;;;;;;;2.15;1.40;;;;;;;-144.05;83.73;56978.41;5014108;28;20116;-84
2023/11/09 00:11:56;;;;;;;4.38;1.35;;;;;;;-144.05;82.96;56989.00;5007323;28;20499;-81
2023/11/09 00:14:22;;;;;;;3.50;1.02;;;;;;;-144.05;82.86;56972.03;5014033;28;20117;-79
2023/11/09 00:16:49;;;;;;;2.60;1.45;;;;;;;-144.05;82.54;56955.03;5013965;28;20121;-83
2023/11/09 00:19:15;;;;;;;2.30;1.35;;;;;;;-144.05;82.75;56969.91;5014010;28;20054;-83
2023/11/09 00:21:42;;;;;;;4.55;1.08;;;;;;;-144.05;82.64;56989.00;4996380;28;20022;-81
2023/11/09 00:24:10;;;;;;;1.90;1.10;;;;;;;-144.05;83.08;56986.91;5014219;28;20029;-84
2023/11/09 00:26:41;;;;;;;3.40;1.00;;;;;;;-144.05;83.25;56972.03;5014160;28;20172;-85
2023/11/09 00:29:07;;;;;;;2.03;1.15;;;;;;;-144.05;83.10;56982.66;5014519;28;20036;-85
2023/11/09 00:31:34;;;;;;;1.13;0.90;;;;;;;-144.05;82.89;56980.53;5014288;28;20498;-82
2023/11/09 00:34:00;;;;;;;2.63;1.10;;;;;;;-144.05;83.14;56989.00;4996444;28;20049;-84
2023/11/09 00:36:26;;;;;;;1.38;0.80;;;;;;;-144.05;82.58;56948.66;5014829;28;20525;-83
2023/11/09 00:38:52;;;;;;;2.33;1.10;;;;;;;-144.05;82.86;56976.28;5014462;28;20117;-82
2023/11/09 00:41:18;;;;;;;1.10;0.90;;;;;;;-144.05;83.56;56963.53;5013970;28;20052;-82
2023/11/09 00:43:46;;;;;;;2.10;1.00;;;;;;;-144.05;83.07;56974.16;5014171;28;20104;-84
2023/11/09 00:46:12;;;;;;;1.90;0.95;;;;;;;-144.05;82.89;56955.03;5007850;28;20100;-83
2023/11/09 00:48:38;;;;;;;1.73;1.00;;;;;;;-144.05;82.89;56984.78;5014709;28;20030;-82
2023/11/09 00:51:04;;;;;;;1.30;0.82;;;;;;;-144.05;82.88;56999.63;5014746;28;20108;-83
2023/11/09 00:53:31;;;;;;;2.25;0.90;;;;;;;-144.05;84.00;56969.91;5014633;28;20136;-84
2023/11/09 00:55:57;;;;;;;1.88;1.13;;;;;;;-144.05;83.33;56993.25;5014496;28;20030;-83
2023/11/09 00:58:23;;;;;;;2.17;1.00;;;;;;;-144.05;83.77;56972.03;5014433;28;20022;-83
2023/11/09 01:00:49;;;;;;;1.95;1.25;;;;;;;-144.05;83.63;57003.88;5014799;28;20022;-85
2023/11/09 01:03:16;;;;;;;4.10;1.23;;;;;;;-144.05;84.74;56963.53;5025832;28;20053;-81
2023/11/09 01:05:42;;;;;;;1.90;0.85;;;;;;;-144.05;84.31;56978.41;5030088;28;20407;-81
2023/11/09 01:08:08;;;;;;;1.42;0.90;;;;;;;-144.05;84.07;56969.91;5024495;28;20033;-84
2023/11/09 01:10:35;;;;;;;1.40;0.90;;;;;;;-144.05;83.86;56942.28;5033863;28;20042;-81
2023/11/09 01:13:01;;;;;;;2.22;1.00;;;;;;;-144.05;83.71;56972.03;4995795;28;20034;-84
2023/11/09 01:15:27;;;;;;;1.92;0.70;;;;;;;-144.05;83.62;56967.78;5010149;28;20041;-83
2023/11/09 01:18:07;;;;;;;1.60;0.90;;;9.30;99.90;;;-144.05;83.86;56986.91;4995072;28;20049;-83
2023/11/09 01:20:35;;;;;;;4.00;1.13;;;8.80;99.90;;;-144.05;83.88;56978.41;5012680;28;20030;-83
2023/11/09 01:23:02;;;;;;;2.33;0.98;;;;;;;-144.05;83.23;56993.25;4994951;28;20071;-82
2023/11/09 01:25:29;;;;;;;2.00;0.88;;;;;;;-144.05;84.27;56969.91;5012744;28;20025;-82
2023/11/09 01:27:55;;;;;;;3.47;1.10;;;;;;;-144.05;84.02;56999.63;5012504;28;20484;-83
2023/11/09 01:30:22;;;;;;;1.63;1.00;;;;;;;-144.05;84.08;56974.16;5012649;28;20084;-82
2023/11/09 01:32:48;;;;;;;2.28;1.30;;;;;;;-144.05;84.19;56984.78;5010307;28;20442;-83
2023/11/09 01:35:14;;;;;;;1.75;1.00;;;;;;;-144.05;84.21;56955.03;5014525;28;20121;-86
2023/11/09 01:37:40;;;;;;;2.03;0.90;;;;;;;-144.05;84.01;56989.00;5014637;28;20025;-84
2023/11/09 01:40:09;;;;;;;1.92;1.08;;;;;;;-144.05;84.22;56989.00;5013616;28;20068;-85
2023/11/09 01:42:37;;;;;;;2.97;1.40;;;;;;;-144.05;84.04;56982.66;5013277;28;20022;-84
2023/11/09 01:45:06;;;;;;;1.92;1.15;;;9.70;99.90;;;-144.05;84.27;56961.41;5012499;28;20112;-82
2023/11/09 01:47:34;;;;;;;3.85;1.10;;;10.70;99.90;;;-144.05;84.11;56995.38;5013174;28;20024;-84
2023/11/09 01:50:05;;;;;;;5.90;1.10;;;9.20;99.90;;;-144.05;84.31;56993.25;5012818;28;20033;-81
2023/11/09 01:52:33;;;;;;;2.30;1.10;;;;;;;-144.05;84.06;56991.13;5012681;28;20033;-82
2023/11/09 01:55:01;;;;;;;1.70;1.05;;;;;;;-144.05;83.29;56969.91;4995015;28;20525;-82
2023/11/09 01:57:28;;;;;;;2.72;1.00;;;;;;;-144.05;83.91;56982.66;5012889;28;20025;-83
2023/11/09 01:59:57;;;;;;;2.13;1.10;;;9.00;99.90;;;-144.05;84.05;56974.16;5012127;28;20025;-82
2023/11/09 02:02:23;;;;;;;1.75;1.02;;;;;;;-144.05;84.76;56969.91;5012538;28;20383;-82
2023/11/09 02:04:49;;;;;;;0.90;0.77;;;;;;;-144.05;83.90;56965.66;5006236;28;20096;-85
2023/11/09 02:07:18;;;;;;;2.72;1.10;;;9.20;99.90;;;-144.05;84.28;56950.78;5007172;28;20022;-82
2023/11/09 02:09:44;;;;;;;2.28;1.05;;;;;;;-144.05;84.08;57010.25;5005553;28;20022;-83
2023/11/09 02:12:10;;;;;;;1.38;0.80;;;;;;;-144.05;84.66;56993.25;5006237;28;20022;-81
2023/11/09 02:14:37;;;;;;;5.05;1.50;;;;;;;-144.05;83.87;57008.13;5011864;28;20025;-85
2023/11/09 02:17:06;;;;;;;1.25;1.00;;;9.30;99.90;;;-144.05;83.58;56976.28;5011829;28;20032;-82
2023/11/09 02:19:32;;;;;;;2.70;1.27;;;;;;;-144.05;83.16;56976.28;4993630;28;20033;-83
2023/11/09 02:21:59;;;;;;;2.50;1.35;;;;;;;-144.05;83.31;56984.78;5011590;28;20054;-84
2023/11/09 02:24:26;;;;;;;2.28;1.10;;;;;;;-144.05;84.17;57001.75;5011516;28;20041;-83
2023/11/09 02:26:57;;;;;;;2.80;1.23;;;;;;;-144.05;83.93;56982.66;5011706;28;20399;-83
2023/11/09 02:29:25;;;;;;;4.15;1.95;;;;;;;-144.05;82.91;56984.78;5011361;28;20045;-81
2023/11/09 02:31:51;;;;;;;1.83;1.25;;;;;;;-144.05;82.69;56982.66;5011399;28;20113;-78
2023/11/09 02:34:23;;;;;;;1.92;1.40;;;10.10;99.90;;;-144.05;82.49;56999.63;5011761;28;20091;-83
2023/11/09 02:36:54;;;;;;;2.15;1.10;;;;;;;-144.05;82.84;57006.00;5009073;28;20026;-82
2023/11/09 02:39:21;;;;;;;5.15;1.73;;;;;;;-144.05;82.64;56948.66;5011847;28;20061;-83
2023/11/09 02:41:47;;;;;;;2.83;1.10;;;;;;;-144.05;81.88;57010.25;5011290;28;20083;-81
2023/11/09 02:44:13;;;;;;;4.28;0.98;;;;;;;-144.05;82.27;56969.91;5011335;28;20044;-81
2023/11/09 02:46:39;;;;;;;4.00;1.00;;;;;;;-144.05;81.74;56997.50;4993302;28;20500;-82
2023/11/09 02:49:06;;;;;;;4.30;1.05;;;;;;;-144.05;82.89;56980.53;5010904;28;20026;-81
2023/11/09 02:51:34;;;;;;;1.75;1.05;;;;;;;-144.05;82.77;56955.03;5005391;28;20136;-82
2023/11/09 02:54:00;;;;;;;2.63;1.10;;;;;;;-144.05;82.81;56995.38;4993286;28;20033;-83
2023/11/09 02:56:26;;;;;;;4.97;1.27;;;;;;;-144.05;83.02;56967.78;5011197;28;20033;-81
2023/11/09 02:58:52;;;;;;;2.38;1.40;;;;;;;-144.05;82.96;56972.03;5010716;28;20026;-83
2023/11/09 03:01:19;;;;;;;2.85;1.02;;;;;;;-144.05;81.98;56965.66;5011120;28;20061;-85
2023/11/09 03:03:45;;;;;;;2.55;1.15;;;;;;;-144.05;82.57;56991.13;5015341;28;20021;-86
2023/11/09 03:06:14;;;;;;;2.45;1.10;;;;;;;-144.05;82.97;56997.50;5014429;28;20041;-82
2023/11/09 03:08:41;;;;;;;2.33;1.23;;;;;;;-144.05;83.15;56950.78;5013496;28;20495;-80
2023/11/09 03:11:08;;;;;;;1.58;1.00;;;;;;;-144.05;82.89;56965.66;5008996;28;20030;-82
2023/11/09 03:13:39;;;;;;;1.58;1.20;;;;;;;-144.05;83.23;56980.53;5010363;28;20029;-82
2023/11/09 03:16:07;;;;;;;2.65;0.93;;;;;;;-144.05;82.92;56984.78;5012194;28;20538;-83
2023/11/09 03:18:34;;;;;;;2.65;1.52;;;;;;;-144.05;82.74;56982.66;5012103;28;20034;-82
2023/11/09 03:21:00;;;;;;;2.90;1.42;;;;;;;-144.05;82.94;56931.66;5011745;28;20450;-81
2023/11/09 03:23:26;;;;;;;2.40;1.08;;;;;;;-144.05;83.44;56995.38;5005895;28;20022;-82
2023/11/09 03:25:54;;;;;;;2.28;1.15;;;;;;;-144.05;82.73;56950.78;5010434;28;20026;-79
2023/11/09 03:28:20;;;;;;;2.30;1.23;;;;;;;-144.05;82.95;56965.66;5010743;28;20099;-79
2023/11/09 03:30:46;;;;;;;1.50;0.80;;;;;;;-144.05;83.44;56952.91;5012182;28;20505;-81
2023/11/09 03:33:14;;;;;;;4.95;1.02;;;;;;;-144.05;82.86;56978.41;5014469;28;20026;-81
2023/11/09 03:35:40;;;;;;;1.55;1.10;;;;;;;-144.05;82.63;56944.41;4997046;28;20025;-82
2023/11/09 03:38:06;;;;;;;2.05;1.23;;;;;;;-144.05;82.29;56967.78;5014571;28;20391;-82
2023/11/09 03:40:32;;;;;;;3.13;1.02;;;;;;;-144.05;82.17;56976.28;5014491;28;20026;-80
2023/11/09 03:42:58;;;;;;;1.05;0.73;;;;;;;-144.05;82.37;56929.53;4996822;28;20052;-81
2023/11/09 03:45:25;;;;;;;2.38;0.80;;;;;;;-144.05;81.88;56972.03;5014251;28;20478;-82
2023/11/09 03:47:53;;;;;;;1.25;0.90;;;;;;;-144.05;82.05;56965.66;5009362;28;20364;-81
2023/11/09 03:50:19;;;;;;;1.88;0.93;;;;;;;-144.05;81.83;56972.03;5014528;28;20061;-81
2023/11/09 03:52:46;;;;;;;2.53;1.02;;;;;;;-144.05;80.57;56963.53;5008951;28;20109;-79
2023/11/09 03:55:12;;;;;;;1.50;0.90;;;;;;;-144.05;80.96;56948.66;5014130;28;20026;-81
2023/11/09 03:57:39;;;;;;;2.10;0.70;;;;;;;-144.05;80.43;56986.91;5009224;28;20109;-80
2023/11/09 04:00:13;;;;;;;3.63;1.10;;;;;;;-144.05;80.95;56955.03;5014067;28;20025;-83
2023/11/09 04:02:42;;;;;;;1.08;0.70;;;9.30;99.90;;;-144.05;80.75;56986.91;5014081;28;20029;-80
2023/11/09 04:05:11;;;;;;;1.30;0.70;;;9.80;99.90;;;-144.05;80.52;56967.78;4996304;28;20021;-81
2023/11/09 04:07:45;;;;;;;2.28;0.90;;;10.60;99.90;;;-144.05;79.82;56955.03;5014055;28;20057;-82
2023/11/09 04:10:14;;;;;;;1.40;0.80;;;10.30;99.90;;;-144.05;79.62;56969.91;5007948;28;20514;-81
2023/11/09 04:12:40;;;;;;;2.72;0.90;;;;;;;-144.05;80.20;56946.53;5008653;28;20076;-82
2023/11/09 04:15:09;;;;;;;3.30;1.00;;;;;;;-144.05;80.28;56950.78;4996232;28;20037;-82
2023/11/09 04:17:35;;;;;;;1.65;0.80;;;;;;;-144.05;79.82;56974.16;5013733;28;20026;-81
2023/11/09 04:20:02;;;;;;;1.30;0.80;;;;;;;-144.05;80.39;56955.03;5014315;28;20165;-82
2023/11/09 04:22:29;;;;;;;1.40;0.80;;;;;;;-144.05;80.10;56974.16;4996741;28;20049;-80
2023/11/09 04:24:56;;;;;;;2.10;0.98;;;;;;;-144.05;80.58;56980.53;5014250;28;20026;-84
2023/11/09 04:27:22;;;;;;;1.13;0.75;;;;;;;-144.05;80.57;56957.16;5009417;28;20030;-81
2023/11/09 04:29:49;;;;;;;1.15;0.98;;;;;;;-144.05;80.96;56942.28;5011414;28;20032;-82
2023/11/09 04:32:18;;;;;;;0.98;0.60;;;;;;;-144.05;80.47;56942.28;5013213;28;20375;-82
2023/11/09 04:34:46;;;;;;;0.63;0.60;;;;;;;-144.05;80.87;56948.66;5017501;28;20026;-80
2023/11/09 04:37:15;;;;;;;1.02;0.70;;;11.60;99.90;;;-144.05;81.04;56980.53;5017841;28;20022;-80
2023/11/09 04:39:43;;;;;;;1.65;0.80;;;;;;;-144.05;80.84;56972.03;5017828;28;20558;-80
2023/11/09 04:42:18;;;;;;;2.55;0.88;;;;;;;-144.05;81.89;56944.41;5018786;28;20471;-83
2023/11/09 04:44:50;;;;;;;1.42;1.08;;;;;;;-144.05;81.77;56963.53;4998543;28;20107;-83
2023/11/09 04:47:24;;;;;;;2.88;0.85;;;9.00;99.90;;;-144.05;82.19;56993.25;5013461;28;20026;-80
2023/11/09 04:50:03;;;;;;;2.97;1.00;;;;;;;-144.05;81.11;56976.28;5011083;28;20464;-79
2023/11/09 04:52:30;;;;;;;3.78;0.80;;;;;;;-144.05;81.16;56940.16;5014183;28;20022;-82
2023/11/09 04:55:09;;;;;;;0.98;0.70;;;;;;;-144.05;80.94;56959.28;5015377;28;20550;-81
2023/11/09 05:08:41;;;;;;;1.85;0.82;;;;;;;-144.05;82.12;56976.28;5013002;28;20048;-81
2023/11/09 05:11:13;;;;;;;2.83;0.90;;;;;;;-144.05;81.94;56961.41;5013274;28;20054;-81
2023/11/09 05:13:40;;;;;;;1.88;0.80;;;;;;;-144.05;82.14;56946.53;5008546;28;20031;-83
2023/11/09 05:16:07;;;;;;;0.70;0.70;;;;;;;-144.05;82.22;56961.41;5013341;28;20029;-81
2023/11/09 05:18:33;;;;;;;1.38;0.70;;;;;;;-144.05;82.42;56963.53;5013194;28;20037;-81
2023/11/09 05:20:59;;;;;;;1.38;0.77;;;;;;;-144.05;83.07;56957.16;5014149;28;20488;-81
2023/11/09 05:23:25;;;;;;;2.20;0.73;;;;;;;-144.05;82.74;56955.03;5014461;28;20131;-79
2023/11/09 05:25:52;;;;;;;3.22;0.60;;;;;;;-144.05;82.58;56957.16;5014044;28;20026;-79
2023/11/09 05:28:19;;;;;;;1.90;0.70;;;;;;;-144.05;82.72;56948.66;5013899;28;20497;-79
2023/11/09 05:30:50;;;;;;;3.95;1.08;;;9.90;99.90;;;-144.05;82.93;56989.00;5013934;28;20036;-80
2023/11/09 05:33:18;;;;;;;2.15;0.98;;;9.80;99.90;;;-144.05;82.44;56974.16;5009828;28;20022;-82
2023/11/09 05:35:45;;;;;;;1.27;1.05;;;;;;;-144.05;82.47;56959.28;5009303;28;20037;-84
2023/11/09 05:38:11;;;;;;;1.20;1.00;;;;;;;-144.05;82.76;56959.28;5013452;28;20053;-78
2023/11/09 05:40:38;;;;;;;0.90;0.70;;;;;;;-144.05;82.73;56935.91;5013422;28;20034;-80
2023/11/09 05:43:05;;;;;;;3.05;0.75;;;;;;;-144.05;82.46;56965.66;5013514;28;20403;-81
2023/11/09 05:45:31;;;;;;;2.33;0.77;;;;;;;-144.05;82.09;56957.16;5013446;28;20030;-79
2023/11/09 05:47:58;;;;;;;1.02;0.73;;;;;;;-144.05;81.69;56946.53;5009437;28;20105;-79
2023/11/09 05:50:24;;;;;;;1.40;0.63;;;;;;;-144.05;82.07;56957.16;5013636;28;20030;-80
2023/11/09 05:52:50;;;;;;;1.38;0.63;;;;;;;-144.05;81.38;56931.66;5013285;28;20029;-79
2023/11/09 05:55:16;;;;;;;3.88;0.93;;;;;;;-144.05;81.57;56957.16;5013799;28;20061;-81
2023/11/09 05:57:42;;;;;;;1.73;0.80;;;;;;;-144.05;81.73;56978.41;5014393;28;20106;-80
2023/11/09 06:00:10;;;;;;;2.70;0.98;;;;;;;-144.05;81.22;56955.03;5014301;28;20026;-80
2023/11/09 06:02:37;;;;;;;1.15;0.70;;;;;;;-144.05;81.31;56957.16;5013986;28;20040;-82
2023/11/09 06:05:04;;;;;;;1.92;1.15;;;;;;;-144.05;80.72;56972.03;5007810;28;20030;-82
2023/11/09 06:07:30;;;;;;;1.02;0.88;;;;;;;-144.05;81.19;56989.00;5012283;28;20021;-81
2023/11/09 06:09:57;;;;;;;2.88;0.90;;;;;;;-144.05;81.67;56963.53;5014406;28;20030;-79
2023/11/09 06:12:24;;;;;;;2.03;0.90;;;;;;;-144.05;81.17;56965.66;5010352;28;20118;-76
2023/11/09 06:14:50;;;;;;;1.05;0.63;;;;;;;-144.05;80.93;56955.03;5014128;28;20061;-80
2023/11/09 06:17:16;;;;;;;1.10;0.85;;;;;;;-144.05;81.16;56967.78;5014718;28;20057;-81
2023/11/09 06:19:43;;;;;;;1.10;0.77;;;;;;;-144.05;80.86;56955.03;5009895;28;20470;-82
2023/11/09 06:22:09;;;;;;;1.67;0.70;;;;;;;-144.05;80.55;56980.53;5012641;28;20045;-81
2023/11/09 06:24:37;;;;;;;1.33;0.85;;;;;;;-144.05;81.14;56980.53;5013417;28;20045;-84
2023/11/09 06:27:07;;;;;;;3.38;1.17;;;9.60;99.90;;;-144.05;80.96;56952.91;5029746;28;20018;-79
2023/11/09 06:29:33;;;;;;;1.45;0.85;;;;;;;-144.05;80.85;56974.16;5030878;28;20022;-80
2023/11/09 06:31:59;;;;;;;1.92;0.60;;;;;;;-144.05;80.56;56980.53;5030368;28;20030;-79
2023/11/09 06:34:26;;;;;;;1.60;0.70;;;;;;;-144.05;80.81;56955.03;5015303;28;20429;-79
2023/11/09 06:36:53;;;;;;;0.82;0.70;;;;;;;-144.05;81.46;56961.41;5013805;28;20049;-77
2023/11/09 06:39:22;;;;;;;2.15;0.82;;;;;;;-144.05;81.97;56946.53;5013515;28;20026;-81
2023/11/09 06:41:49;;;;;;;2.55;1.05;;;;;;;-144.05;82.15;56995.38;5009241;28;20029;-81
2023/11/09 06:44:16;;;;;;;2.70;0.85;;;10.00;99.90;;;-144.05;81.91;56986.91;5013359;28;20454;-82
2023/11/09 06:46:42;;;;;;;2.55;0.98;;;;;;;-144.05;82.66;56969.91;5013337;28;20026;-81
2023/11/09 06:49:09;;;;;;;3.72;0.82;;;;;;;-144.05;82.97;56986.91;5013063;28;20030;-83
2023/11/09 06:51:35;;;;;;;2.92;1.33;;;;;;;-144.05;83.48;56972.03;5012634;28;20107;-77
2023/11/09 06:54:05;;;;;;;1.40;0.93;;;8.70;99.90;;;-144.05;83.94;57016.63;4995345;28;20034;-79
2023/11/09 06:56:34;;;;;;;2.58;0.95;;;;;;;-144.05;84.02;56952.91;4995359;28;20503;-83
2023/11/09 06:59:01;;;;;;;0.93;0.80;;;;;;;-144.05;84.00;56950.78;5012284;28;20061;-81
2023/11/09 07:01:27;;;;;;;0.95;0.68;;;;;;;-144.05;84.15;56952.91;5012422;28;20026;-81
2023/11/09 07:03:53;;;;;;;1.88;0.90;;;;;;;-144.05;84.23;56948.66;4994553;28;20030;-81
2023/11/09 07:06:20;;;;;;;1.80;0.70;;;9.30;99.90;;;-144.05;84.34;56976.28;4990187;28;20030;-81
2023/11/09 07:08:46;;;;;;;0.93;0.50;;;;;;;-144.05;84.36;57001.75;5012706;28;20109;-84
2023/11/09 07:11:12;;;;;;;1.45;0.73;;;;;;;-144.05;84.30;56952.91;4992090;28;20049;-81
2023/11/09 07:13:39;;;;;;;3.08;0.70;;;;;;;-144.05;84.71;56952.91;5010549;28;20113;-81
2023/11/09 07:16:07;;;;;;;2.47;0.65;;;;;;;-144.05;84.45;56978.41;5012475;28;20033;-83
2023/11/09 07:18:34;;;;;;;0.75;0.70;;;;;;;-144.05;84.73;56978.41;5012628;28;20139;-80
2023/11/09 07:21:02;;;;;;;2.35;0.80;;;;;;;-144.05;84.30;56942.28;5012178;28;20038;-83
2023/11/09 07:23:28;;;;;;;1.42;0.68;;;;;;;-144.05;84.34;56993.25;5013150;28;20033;-80
2023/11/09 07:25:55;;;;;;;1.08;0.60;;;;;;;-144.05;84.39;56965.66;5013478;28;20057;-80
2023/11/09 07:28:21;;;;;;;2.42;0.50;;;;;;;-144.05;84.22;56997.50;5013319;28;20398;-80
2023/11/09 07:30:48;;;;;;;3.13;0.68;;;;;;;-144.05;84.41;56984.78;5013286;28;20025;-80
2023/11/09 07:33:15;;;;;;;5.00;0.70;;;9.40;99.90;;;-144.05;84.03;56999.63;5013180;28;20057;-81
2023/11/09 07:35:44;;;;;;;1.10;0.60;;;;;;;-144.05;84.13;56989.00;5012982;28;20029;-81
2023/11/09 07:38:16;;;;;;;1.45;0.60;;;9.40;99.90;;;-144.05;84.42;56984.78;5012727;28;20061;-81
2023/11/09 07:40:42;;;;;;;0.75;0.55;;;;;;;-144.05;84.66;56946.53;5012633;28;20026;-80
2023/11/09 07:43:10;;;;;;;1.15;0.70;;;;;;;-144.05;84.62;56942.28;5008965;28;20515;-82
2023/11/09 07:45:38;;;;;;;0.95;0.60;;;9.40;99.90;;;-144.05;84.60;56989.00;5012687;28;20494;-82
2023/11/09 07:48:04;;;;;;;1.10;0.57;;;;;;;-144.05;85.04;56972.03;5012501;28;20029;-80
2023/11/09 07:50:33;;;;;;;1.08;0.60;;;9.40;99.90;;;-144.05;84.91;56976.28;5012549;28;20052;-81
2023/11/09 07:53:00;;;;;;;1.75;0.70;;;;;;;-144.05;85.26;56989.00;5012090;28;20025;-82
2023/11/09 07:55:31;;;;;;;0.30;0.30;;;;;;;-144.05;85.44;56978.41;5012442;28;20379;-82
2023/11/09 07:58:02;;;;;;;0.52;0.50;;;;;;;-144.05;85.30;56923.19;5007856;28;20025;-79
2023/11/09 08:00:29;;;;;;;1.33;0.32;;;;;;;-144.05;84.95;56976.28;5011606;28;20045;-79
2023/11/09 08:02:58;;;;;;;0.90;0.43;;;;;;;-144.05;85.45;57001.75;5008134;28;20026;-80
2023/11/09 08:05:24;;;;;;;0.82;0.55;;;;;;;-144.05;85.59;56972.03;5013507;28;20043;-83
2023/11/09 08:07:54;;;;;;;0.65;0.50;;;;;;;-144.05;86.05;56967.78;5012845;28;20073;-81
2023/11/09 08:10:24;;;;;;;2.78;0.43;;;;;;;-144.05;85.82;56997.50;4994337;28;20074;-82
2023/11/09 08:12:52;;;;;;;0.43;0.30;;;;;;;-144.05;85.67;56944.41;5007547;28;20022;-83
2023/11/09 08:15:18;;;;;;;2.05;0.70;;;;;;;-144.05;86.40;56955.03;5011512;28;20033;-82
2023/11/09 08:17:47;;;;;;;1.20;0.45;;;;;;;-144.05;86.45;56976.28;5014614;28;20164;-81
2023/11/09 08:20:13;;;;;;;0.80;0.50;;;;;;;-144.05;86.50;56993.25;5015532;28;20548;-79
2023/11/09 08:22:45;;;;;;;4.25;0.50;;;;;;;-144.05;86.69;56969.91;5016810;28;20375;-84
2023/11/09 08:25:19;;;;;;;1.25;0.40;;;8.70;99.90;;;-144.05;86.05;56965.66;5017216;28;20034;-79
2023/11/09 08:27:46;;;;;;;0.98;0.68;;;;;;;-144.05;86.24;56972.03;5016586;28;20359;-82
2023/11/09 08:30:15;;;;;;;2.20;0.38;;;;;;;-144.05;86.05;56938.03;5016796;28;20029;-80
2023/11/09 08:32:46;;;;;;;0.30;0.30;;;;;;;-144.05;86.44;56944.41;5016847;28;20080;-82
2023/11/09 08:35:13;;;;;;;1.92;0.70;;;;;;;-144.05;86.04;56984.78;5016361;28;20026;-81
2023/11/09 08:37:41;;;;;;;0.57;0.40;;;8.80;99.90;;;-144.05;86.20;56959.28;5016758;28;20475;-83
2023/11/09 08:40:21;;;;;;;0.45;0.40;;;10.20;99.90;;;-144.05;85.51;56993.25;5016366;28;20053;-81
2023/11/09 08:42:48;;;;;;;1.35;0.40;;;;;;;-144.05;85.56;56955.03;5015724;28;20072;-80
2023/11/09 08:45:17;;;;;;;0.90;0.40;;;;;;;-144.05;85.49;56974.16;5015356;28;20040;-80
2023/11/09 08:47:45;;;;;;;0.30;0.30;;;9.00;99.90;;;-144.05;85.66;56969.91;5015472;28;20395;-79
2023/11/09 08:50:13;;;;;;;0.90;0.38;;;;;;;-144.05;85.69;56982.66;5015094;28;20026;-80
2023/11/09 08:52:43;;;;;;;0.50;0.30;;;10.10;99.90;;;-144.05;85.81;56980.53;5015153;28;20034;-80
2023/11/09 08:55:10;;;;;;;1.25;0.65;;;;;;;-144.05;85.50;56982.66;5015620;28;20030;-77
2023/11/09 08:57:38;;;;;;;3.30;0.43;;;9.50;99.90;;;-144.05;85.63;56982.66;5015357;28;20018;-82
2023/11/09 09:00:12;;;;;;;0.30;0.30;;;9.50;99.90;;;-144.05;85.98;56991.13;5012440;28;20032;-81
2023/11/09 09:02:49;;;;;;;1.77;0.40;;;9.40;99.90;;;-144.05;86.31;56989.00;5015419;28;20395;-82
2023/11/09 09:05:21;;;;;;;0.68;0.35;;;9.40;99.90;;;-144.05;86.64;56986.91;5015199;28;20056;-83
2023/11/09 09:07:50;;;;;;;0.35;0.28;;;9.30;99.90;;;-144.05;86.39;56972.03;5015420;28;20112;-81
2023/11/09 09:10:17;;;;;;;0.50;0.35;;;9.50;99.90;;;-144.05;86.54;56955.03;5012245;28;20022;-82
2023/11/09 09:12:45;;;;;;;0.52;0.30;;;9.20;99.90;;;-144.05;85.86;56957.16;4994484;28;20063;-79
2023/11/09 09:15:13;;;;;;;1.75;0.40;;;;;;;-144.05;85.83;56959.28;5015304;28;20034;-81
2023/11/09 09:17:42;;;;;;;2.30;0.50;;;;;;;-144.05;85.68;56923.19;5014588;28;20034;-83
2023/11/09 09:20:11;;;;;;;2.05;0.55;;;9.60;99.90;;;-144.05;85.47;56976.28;5014794;28;20022;-81
2023/11/09 09:22:39;;;;;;;0.85;0.47;;;9.70;99.90;;;-144.05;85.07;56967.78;5014842;28;20018;-81
2023/11/09 09:25:14;;;;;;;1.80;0.47;;;;;;;-144.05;84.94;56991.13;5014544;28;20483;-81
2023/11/09 09:27:49;;;;;;;0.85;0.43;;;9.70;99.90;;;-144.05;84.52;56978.41;5013911;28;20029;-81
2023/11/09 09:30:18;;;;;;;0.60;0.30;;;;;;;-144.05;84.46;56957.16;5014284;28;20029;-82
2023/11/09 09:32:47;;;;;;;1.33;0.45;;;9.80;99.90;;;-144.05;84.38;56944.41;5013971;28;20124;-80
2023/11/09 09:35:14;;;;;;;5.15;0.98;;;;;;;-144.05;84.80;56967.78;5014580;28;20113;-80
2023/11/09 09:37:45;;;;;;;2.75;0.65;;;9.90;99.90;;;-144.05;84.16;56993.25;4996664;28;20021;-78
2023/11/09 09:40:19;;;;;;;2.60;0.50;;;9.90;99.90;;;-144.05;83.36;56984.78;5012546;28;20033;-81
2023/11/09 09:42:52;;;;;;;1.30;0.50;;;;;;;-144.05;82.82;56978.41;5010808;28;20021;-81
2023/11/09 09:45:26;;;;;;;4.10;1.45;;;10.20;99.90;;;-144.05;82.02;56986.91;4996857;28;20022;-83
2023/11/09 09:47:59;;;;;;;1.60;0.60;;;10.20;99.90;;;-144.05;81.99;56976.28;5014237;28;20041;-81
2023/11/09 09:50:37;;;;;;;1.50;0.52;;;10.40;99.90;;;-144.05;81.81;56967.78;5013404;28;20030;-80
2023/11/09 09:53:08;;;;;;;1.40;0.55;;;10.10;99.90;;;-144.05;80.80;56997.50;5010515;28;20091;-81
2023/11/09 09:55:36;;;;;;;1.83;0.40;;;10.10;99.90;;;-144.05;80.40;56948.66;4995721;28;20177;-81
2023/11/09 09:58:05;;;;;;;2.00;0.77;;;10.10;99.90;;;-144.05;80.33;56961.41;5013167;28;20030;-80
2023/11/09 10:00:32;;;;;;;4.85;0.68;;;10.10;99.90;;;-144.05;80.87;56980.53;5012644;28;20029;-82
2023/11/09 10:03:06;;;;;;;3.28;0.80;;;10.10;99.90;;;-144.05;79.62;56969.91;5012916;28;20034;-82
2023/11/09 10:05:36;;;;;;;6.05;1.00;;;;;;;-144.05;78.86;56982.66;5010762;28;20029;-80
2023/11/09 10:08:13;;;;;;;4.28;0.80;;;10.10;99.90;;;-144.05;78.65;56976.28;4995304;28;20495;-82
2023/11/09 10:10:49;;;;;;;1.60;0.73;;;10.10;99.90;;;-144.05;77.79;56967.78;5013115;28;20034;-80
2023/11/09 10:13:18;;;;;;;2.42;0.95;;;;;;;-144.05;77.36;56974.16;5008081;28;20053;-78
2023/11/09 10:15:55;;;;;;;5.63;1.10;;;10.20;99.90;;;-144.05;76.29;56963.53;5012510;28;20033;-81
2023/11/09 10:18:32;;;;;;;5.53;1.00;;;10.30;99.90;;;-144.05;75.40;56978.41;5013712;28;20080;-79
2023/11/09 10:21:03;;;;;;;5.68;1.15;;;10.30;99.90;;;-144.05;74.09;56969.91;5013346;28;20349;-79
2023/11/09 10:23:29;;;;;;;4.32;0.77;;;;;;;-144.05;73.72;56969.91;5011250;28;20426;-80
2023/11/09 10:26:02;;;;;;;3.80;1.15;;;10.40;99.90;;;-144.05;73.48;56986.91;5013543;28;20682;-78
2023/11/09 10:28:28;;;;;;;3.92;1.40;;;;;;;-144.05;73.86;56972.03;5013172;28;20038;-79
2023/11/09 10:30:55;;;;;;;4.78;1.20;;;;;;;-144.05;73.47;56963.53;5013783;28;20444;-80
2023/11/09 10:33:22;;;;;;;6.47;1.15;;;10.60;99.90;;;-144.05;72.56;56961.41;5010779;28;20041;-77
2023/11/09 10:35:49;;;;;;;6.90;1.92;;;;;;;-144.05;72.61;56978.41;4995613;28;20030;-80
2023/11/09 10:38:20;;;;;;;8.27;1.17;;;10.40;99.90;;;-144.05;71.54;56940.16;5011963;28;20602;-78
2023/11/09 10:40:47;;;;;;;4.18;1.00;;;;;;;-144.05;71.74;56976.28;5012792;28;20026;-77
2023/11/09 10:43:15;;;;;;;6.03;1.52;;;10.10;99.90;;;-144.05;73.01;56980.53;5013529;28;20036;-77
2023/11/09 10:45:46;;;;;;;3.97;1.17;;;10.40;99.90;;;-144.05;72.04;56976.28;5013503;28;20026;-79
2023/11/09 10:48:17;;;;;;;6.32;1.50;;;10.40;99.90;;;-144.05;71.50;56963.53;5013021;28;20030;-79
2023/11/09 10:50:47;;;;;;;4.72;1.52;;;10.40;99.90;;;-144.05;71.39;56965.66;5012015;28;20030;-79
2023/11/09 10:53:22;;;;;;;5.05;1.65;;;10.80;99.90;;;-144.05;70.64;56933.78;5013179;28;20140;-81
2023/11/09 10:55:53;;;;;;;5.30;1.70;;;10.10;99.90;;;-144.05;71.56;56974.16;5007196;28;20030;-78
2023/11/09 10:58:21;;;;;;;11.13;1.90;;;10.60;99.90;;;-144.05;70.09;56952.91;5013024;28;20442;-80
2023/11/09 11:00:58;;;;;;;4.90;1.30;;;10.70;99.90;;;-144.05;70.06;56984.78;5013159;28;20048;-78
2023/11/09 11:03:44;;;;;;;5.25;1.30;;;10.80;99.90;;;-144.05;69.55;56933.78;4995652;28;20045;-77
2023/11/09 11:06:16;;;;;;;9.68;2.22;;;10.80;99.90;;;-144.05;69.82;56965.66;5011992;28;20032;-79
2023/11/09 11:08:44;;;;;;;5.65;1.77;;;;;;;-144.05;70.41;56940.16;5012128;28;20030;-79
2023/11/09 11:11:24;;;;;;;7.40;1.52;;;10.80;99.90;;;-144.05;70.47;56965.66;5011709;28;20030;-81
2023/11/09 11:14:02;;;;;;;4.40;1.60;;;10.80;99.90;;;-144.05;69.95;56972.03;5006015;28;20094;-81